首页
METAR-TAF:

METAR-TAF

机场 :

新奥尔良路易斯阿姆斯特朗国际机场

新奥尔良, 路易斯安那州, 美国

纬度: 29-59-34N, 经度: 090-15-03W, 海拔: 1米

当前天气观测

该预报发布于52分钟前的08:53 UTC
风速11节,风向北转东北,有时为16节阵风
温度 9°C
湿度 71%
气压 1024 hPa
能見度: 16.1公里
少量云层高于1600英尺
散云层高于12000英尺

METAR: KMSY 150853Z 02011G16KT 10SM FEW016 SCT120 09/04 A3025 RMK AO2 SLP244 T00890044 58004

时间: 03:45 (09:45 UTC)

预报

该预报发布于4小时和18分钟前的05:27 UTC
预报有效从15日的 06点(UTC)到 16日的 12点(UTC)
风速10节,风向北转东北
能見度: 10公里
少量云层高于2000英尺
散云层高于4000英尺
阴天层高于11000英尺
短暂存在
从 15日的 06点(UTC)到 15日的 08点(UTC)
多云层高于4000英尺
从 15日的 0900点(UTC)
风速11节,风向
能見度: 10公里
散云层高于13000英尺
多云层高于20000英尺
从 15日的 1200点(UTC)
风速10节,风向
能見度: 10公里
少量云层高于11000英尺
散云层高于25000英尺

TAF: KMSY 150527Z 1506/1612 02010KT P6SM FEW020 SCT040 OVC110 TEMPO 1506/1508 BKN040 FM150900 01011KT P6SM SCT130 BKN200 FM151200 01010KT P6SM FEW110 SCT250

超过4000个机场的气象观测和天气预报(METAR&TAF报告)。

可查询的气象台以黄色和红色小点在地图上表示。

将鼠标移到小点上方,可查看气象台名称。

然后点击查看天气观测和预报。

如需切换地图:点击带黑十字的绿色按钮放大地图;点击带横线的绿色按钮缩小地图;或者点击绿色箭头查看邻近地区的地图。


METAR-TAF: